Time;durP1;ratioP1;P1;durP2;ratioP2;P2;SDS_P1;SDS_P2;PMS_P1;PMS_P2;Temp;Humidity;BMP_temperature;BMP_pressure;BME280_temperature;BME280_humidity;BME280_pressure;Samples;Min_cycle;Max_cycle;Signal;HPM_P1;HPM_P2
2022/12/23 00:01:07;;;;;;;1.85;0.60;;;10.50;99.90;;;;;;5090903;28;20415;-74
2022/12/23 00:03:34;;;;;;;2.08;0.50;;;10.50;99.90;;;;;;5091339;28;20024;-73
2022/12/23 00:06:00;;;;;;;1.58;0.70;;;10.50;99.90;;;;;;5090644;28;20028;-76
2022/12/23 00:08:26;;;;;;;2.38;0.50;;;10.50;99.90;;;;;;5091175;28;20477;-73
2022/12/23 00:10:53;;;;;;;3.70;0.63;;;10.50;99.90;;;;;;5093156;28;20036;-73
2022/12/23 00:16:09;;;;;;;2.70;0.50;;;10.50;99.90;;;;;;5092239;28;20089;-74
2022/12/23 00:18:35;;;;;;;3.38;0.40;;;10.50;99.90;;;;;;5091337;28;20048;-73
2022/12/23 00:21:03;;;;;;;2.53;0.60;;;10.50;99.90;;;;;;5093050;28;20032;-76
2022/12/23 00:23:32;;;;;;;2.15;0.50;;;10.60;99.90;;;;;;5095674;28;20390;-73
2022/12/23 00:25:57;;;;;;;1.35;0.52;;;10.50;99.90;;;;;;5095682;28;20028;-73
2022/12/23 00:28:24;;;;;;;3.28;0.63;;;10.60;99.90;;;;;;5096606;28;20047;-73
2022/12/23 00:31:09;;;;;;;3.42;0.57;;;10.60;99.90;;;;;;5095630;28;20119;-74
2022/12/23 00:33:41;;;;;;;1.10;0.40;;;10.60;99.90;;;;;;5095702;28;20024;-73
2022/12/23 00:36:10;;;;;;;;;;;10.60;99.90;;;;;;5095176;28;20028;-73
2022/12/23 00:44:04;;;;;;;3.55;0.57;;;10.70;99.90;;;;;;5096225;28;20034;-78
2022/12/23 00:46:30;;;;;;;2.28;0.40;;;10.80;99.90;;;;;;5096324;28;20111;-74
2022/12/23 00:51:40;;;;;;;0.88;0.40;;;10.80;99.90;;;;;;5096350;28;20073;-73
2022/12/23 00:54:06;;;;;;;0.98;0.40;;;10.90;99.90;;;;;;5094289;28;20411;-74
2022/12/23 00:56:32;;;;;;;2.25;0.50;;;10.90;99.90;;;;;;5094963;28;20182;-73
2022/12/23 00:58:59;;;;;;;2.33;0.47;;;10.90;99.90;;;;;;5096130;28;20059;-73
2022/12/23 01:06:58;;;;;;;1.80;0.50;;;11.10;99.90;;;;;;5095934;28;20038;-74
2022/12/23 01:09:24;;;;;;;0.52;0.30;;;11.10;99.90;;;;;;5094291;28;20020;-73
2022/12/23 01:11:50;;;;;;;2.45;0.60;;;11.10;99.90;;;;;;5096346;28;20489;-73
2022/12/23 01:14:16;;;;;;;3.80;0.50;;;11.10;99.90;;;;;;5094262;28;20093;-74
2022/12/23 01:16:42;;;;;;;1.08;0.30;;;11.20;99.90;;;;;;5094437;28;20046;-74
2022/12/23 01:19:08;;;;;;;2.40;0.47;;;11.20;99.90;;;;;;5094001;28;20028;-74
2022/12/23 01:21:34;;;;;;;0.55;0.30;;;11.20;99.90;;;;;;5094717;28;20435;-73
2022/12/23 01:23:59;;;;;;;1.35;0.35;;;11.20;99.90;;;;;;5094612;28;20054;-73
2022/12/23 01:26:25;;;;;;;1.80;0.45;;;11.20;99.90;;;;;;5094051;28;20024;-73
2022/12/23 01:28:56;;;;;;;1.20;1.00;;;11.30;99.90;;;;;;5096074;28;20054;-73
2022/12/23 01:31:23;;;;;;;1.20;0.40;;;11.30;99.90;;;;;;5095162;28;20077;-73
2022/12/23 01:33:49;;;;;;;2.25;0.40;;;11.30;99.90;;;;;;5094895;28;20024;-73
2022/12/23 01:36:15;;;;;;;1.85;0.35;;;11.30;99.90;;;;;;5093902;28;20384;-74
2022/12/23 01:38:40;;;;;;;1.27;0.30;;;11.30;99.90;;;;;;5094284;28;20034;-73
2022/12/23 01:41:06;;;;;;;0.65;0.32;;;11.30;99.90;;;;;;5094067;28;20066;-76
2022/12/23 01:43:48;;;;;;;2.78;0.40;;;11.30;99.90;;;;;;5094023;28;20477;-73
2022/12/23 01:46:14;;;;;;;3.35;0.30;;;11.40;99.90;;;;;;5093866;28;20040;-74
2022/12/23 01:48:44;;;;;;;0.85;0.30;;;11.40;99.90;;;;;;5095415;28;20024;-73
2022/12/23 01:51:17;;;;;;;0.40;0.30;;;11.40;99.90;;;;;;5093289;28;20024;-73
2022/12/23 01:53:51;;;;;;;2.05;0.30;;;11.40;99.90;;;;;;5095131;28;20024;-73
2022/12/23 01:56:27;;;;;;;4.15;0.30;;;11.40;99.90;;;;;;5093494;28;20024;-74
2022/12/23 01:58:58;;;;;;;1.05;0.40;;;11.50;99.90;;;;;;5094129;28;20036;-73
2022/12/23 02:04:12;;;;;;;0.70;0.40;;;11.50;99.90;;;;;;5094530;28;20553;-75
2022/12/23 02:09:36;;;;;;;0.57;0.32;;;11.60;99.90;;;;;;5094735;28;20057;-73
2022/12/23 02:12:44;;;;;;;1.27;0.38;;;11.50;99.90;;;;;;5093888;28;20020;-73
2022/12/23 02:18:42;;;;;;;1.45;0.20;;;11.60;99.90;;;;;;5094082;28;20485;-74
2022/12/23 02:21:33;;;;;;;0.43;0.30;;;11.60;99.90;;;;;;5093314;28;20032;-76
2022/12/23 02:24:01;;;;;;;0.90;0.40;;;11.60;99.90;;;;;;5094272;28;20055;-73
2022/12/23 02:27:11;;;;;;;2.10;0.35;;;11.70;99.90;;;;;;5093321;28;20036;-73
2022/12/23 02:30:04;;;;;;;0.30;0.30;;;11.70;99.90;;;;;;5049030;28;20035;-73
2022/12/23 02:32:49;;;;;;;0.50;0.40;;;11.70;99.90;;;;;;5092433;28;20023;-74
2022/12/23 02:35:33;;;;;;;1.05;0.50;;;11.70;99.90;;;;;;5092151;28;20065;-74
2022/12/23 02:38:12;;;;;;;1.08;0.45;;;11.70;99.90;;;;;;5094207;28;20028;-74
2022/12/23 02:41:00;;;;;;;0.95;0.50;;;11.70;99.90;;;;;;5093374;28;20462;-74
2022/12/23 02:43:44;;;;;;;1.15;0.32;;;11.80;99.90;;;;;;5091128;28;20108;-74
2022/12/23 02:46:27;;;;;;;0.73;0.60;;;11.80;99.90;;;;;;5092325;28;20115;-78
2022/12/23 02:49:00;;;;;;;0.50;0.40;;;11.80;99.90;;;;;;5092742;28;20032;-73
2022/12/23 02:51:31;;;;;;;2.83;0.40;;;11.80;99.90;;;;;;5092506;28;20470;-73
2022/12/23 02:54:02;;;;;;;0.28;0.28;;;11.80;99.90;;;;;;5093111;28;20031;-74
2022/12/23 02:56:30;;;;;;;0.50;0.40;;;11.80;99.90;;;;;;5092320;28;20032;-74
2022/12/23 02:59:03;;;;;;;1.65;0.20;;;11.80;99.90;;;;;;5094034;28;20439;-74
2022/12/23 03:01:32;;;;;;;2.05;0.30;;;11.70;99.90;;;;;;5092327;28;20028;-74
2022/12/23 03:03:58;;;;;;;0.38;0.30;;;11.70;99.90;;;;;;5093985;28;20119;-74
2022/12/23 03:06:30;;;;;;;0.40;0.30;;;11.80;99.90;;;;;;5092232;28;20032;-74
2022/12/23 03:08:58;;;;;;;0.70;0.28;;;11.70;99.90;;;;;;5093958;28;20028;-74
2022/12/23 03:11:38;;;;;;;4.53;0.30;;;11.70;99.90;;;;;;5092295;28;20123;-74
2022/12/23 03:14:29;;;;;;;0.40;0.40;;;11.80;99.90;;;;;;5092701;28;20079;-73
2022/12/23 03:17:13;;;;;;;1.40;0.40;;;11.70;99.90;;;;;;5092146;28;20127;-74
2022/12/23 03:19:44;;;;;;;1.25;0.30;;;11.70;99.90;;;;;;5092489;28;20085;-74
2022/12/23 03:22:26;;;;;;;0.60;0.20;;;11.70;99.90;;;;;;5093712;28;20078;-76
2022/12/23 03:25:04;;;;;;;0.28;0.20;;;11.70;99.90;;;;;;5093274;28;20485;-74
2022/12/23 03:27:33;;;;;;;0.70;0.30;;;11.70;99.90;;;;;;5091359;28;20147;-74
2022/12/23 03:30:04;;;;;;;0.75;0.20;;;11.70;99.90;;;;;;5092027;28;20128;-74
2022/12/23 03:32:54;;;;;;;1.92;0.30;;;11.70;99.90;;;;;;5092988;28;20267;-74
2022/12/23 03:35:26;;;;;;;0.88;0.30;;;11.70;99.90;;;;;;5092774;28;20024;-74
2022/12/23 03:37:54;;;;;;;2.72;0.30;;;11.70;99.90;;;;;;5092188;28;20024;-74
2022/12/23 03:40:28;;;;;;;3.60;0.40;;;11.70;99.90;;;;;;5091230;28;20057;-74
2022/12/23 03:42:59;;;;;;;1.20;0.20;;;11.70;99.90;;;;;;5092141;28;20038;-74
2022/12/23 03:45:31;;;;;;;0.40;0.30;;;11.70;99.90;;;;;;5092936;28;20043;-74
2022/12/23 03:48:07;;;;;;;0.32;0.30;;;11.70;99.90;;;;;;5093270;28;20028;-74
2022/12/23 03:50:35;;;;;;;0.52;0.43;;;11.80;99.90;;;;;;5092722;28;20024;-73
2022/12/23 03:53:07;;;;;;;0.50;0.30;;;11.80;99.90;;;;;;5092052;28;20381;-73
2022/12/23 03:55:43;;;;;;;0.60;0.30;;;11.80;99.90;;;;;;5090968;28;20486;-74
2022/12/23 03:58:20;;;;;;;0.82;0.30;;;11.80;99.90;;;;;;5091908;28;20098;-73
2022/12/23 04:01:12;;;;;;;1.10;0.30;;;11.80;99.90;;;;;;5093196;28;20062;-74
2022/12/23 04:03:56;;;;;;;0.73;0.40;;;11.80;99.90;;;;;;5092341;28;20051;-74
2022/12/23 04:06:25;;;;;;;0.47;0.20;;;11.80;99.90;;;;;;5091361;28;20024;-74
2022/12/23 04:08:52;;;;;;;1.65;0.38;;;11.80;99.90;;;;;;5091638;28;20032;-73
2022/12/23 04:11:18;;;;;;;0.32;0.30;;;11.80;99.90;;;;;;5091123;28;20027;-73
2022/12/23 04:13:46;;;;;;;0.60;0.22;;;11.90;99.90;;;;;;5091571;28;20047;-73
2022/12/23 04:16:13;;;;;;;0.68;0.32;;;11.80;99.90;;;;;;5091235;28;20469;-74
2022/12/23 04:18:38;;;;;;;0.47;0.22;;;11.90;99.90;;;;;;5091841;28;20059;-73
2022/12/23 04:21:05;;;;;;;1.70;0.40;;;11.90;99.90;;;;;;5091899;28;20127;-73
2022/12/23 04:23:30;;;;;;;1.27;0.38;;;11.90;99.90;;;;;;5091112;28;20153;-73
2022/12/23 04:25:56;;;;;;;1.25;0.20;;;11.90;99.90;;;;;;5091441;28;20081;-74
2022/12/23 04:28:21;;;;;;;1.23;0.25;;;11.90;99.90;;;;;;5090566;28;20034;-74
2022/12/23 04:30:47;;;;;;;2.30;0.28;;;11.90;99.90;;;;;;5091224;28;20093;-73
2022/12/23 04:33:12;;;;;;;0.40;0.38;;;11.90;99.90;;;;;;5091326;28;20020;-73
2022/12/23 04:35:38;;;;;;;0.85;0.30;;;11.90;99.90;;;;;;5091637;28;20024;-74
2022/12/23 04:38:04;;;;;;;1.13;0.32;;;12.00;99.90;;;;;;5092395;28;20051;-74
2022/12/23 04:40:29;;;;;;;1.75;0.30;;;12.00;99.90;;;;;;5090867;28;20506;-74
2022/12/23 04:42:55;;;;;;;1.25;0.20;;;12.00;99.90;;;;;;5091409;28;20084;-74
2022/12/23 04:45:20;;;;;;;0.75;0.30;;;12.00;99.90;;;;;;5090696;28;20457;-74
2022/12/23 04:47:46;;;;;;;0.85;0.30;;;12.10;99.90;;;;;;5091441;28;20028;-74
2022/12/23 04:50:16;;;;;;;0.88;0.30;;;12.10;99.90;;;;;;5091272;28;20020;-73
2022/12/23 04:52:42;;;;;;;0.32;0.20;;;12.10;99.90;;;;;;5090972;28;20028;-73
2022/12/23 04:55:09;;;;;;;0.32;0.30;;;12.20;99.90;;;;;;5090948;28;20475;-73
2022/12/23 04:57:34;;;;;;;0.88;0.50;;;12.20;99.90;;;;;;5091575;28;20063;-74
2022/12/23 05:00:00;;;;;;;0.60;0.38;;;12.20;99.90;;;;;;5092007;28;20457;-75
2022/12/23 05:02:26;;;;;;;0.98;0.32;;;12.20;99.90;;;;;;5090479;28;20081;-74
2022/12/23 05:04:51;;;;;;;1.65;0.30;;;12.20;99.90;;;;;;5091452;28;20093;-73
2022/12/23 05:07:17;;;;;;;1.88;0.60;;;12.20;99.90;;;;;;5091555;28;20460;-78
2022/12/23 05:09:42;;;;;;;1.33;0.75;;;12.20;99.90;;;;;;5094608;28;20031;-74
2022/12/23 05:12:08;;;;;;;2.35;0.80;;;12.20;99.90;;;;;;5094795;28;20028;-74
2022/12/23 05:14:33;;;;;;;0.95;0.50;;;12.20;99.90;;;;;;5095925;28;20035;-73
2022/12/23 05:16:59;;;;;;;0.93;0.60;;;12.20;99.90;;;;;;5094575;28;20536;-73
2022/12/23 05:19:25;;;;;;;0.60;0.50;;;12.20;99.90;;;;;;5094137;28;20028;-74
2022/12/23 05:21:50;;;;;;;2.20;0.50;;;12.20;99.90;;;;;;5096007;28;20065;-74
2022/12/23 05:24:16;;;;;;;1.00;0.43;;;12.20;99.90;;;;;;5094674;28;20377;-74
2022/12/23 05:26:41;;;;;;;2.25;0.40;;;12.20;99.90;;;;;;5093689;28;20028;-74
2022/12/23 05:29:07;;;;;;;0.20;0.20;;;12.20;99.90;;;;;;5094365;28;20381;-73
2022/12/23 05:31:32;;;;;;;0.30;0.30;;;12.20;99.90;;;;;;5093851;28;20024;-74
2022/12/23 05:33:58;;;;;;;1.65;0.40;;;12.20;99.90;;;;;;5095458;28;20024;-73
2022/12/23 05:36:23;;;;;;;1.73;0.20;;;12.20;99.90;;;;;;5093607;28;20030;-74
2022/12/23 05:38:49;;;;;;;1.17;0.20;;;12.20;99.90;;;;;;5094036;28;20028;-73
2022/12/23 05:41:15;;;;;;;1.45;0.50;;;12.10;99.90;;;;;;5095444;28;20477;-73
2022/12/23 05:43:41;;;;;;;0.40;0.28;;;12.20;99.90;;;;;;5094872;28;20046;-73
2022/12/23 05:46:07;;;;;;;0.30;0.30;;;12.20;99.90;;;;;;5094303;28;20044;-73
2022/12/23 05:48:32;;;;;;;0.40;0.20;;;12.20;99.90;;;;;;5093756;28;20454;-74
2022/12/23 05:50:58;;;;;;;0.28;0.20;;;12.20;99.90;;;;;;5095525;28;20092;-74
2022/12/23 05:53:24;;;;;;;1.13;0.38;;;12.20;99.90;;;;;;5094701;28;20020;-74
2022/12/23 05:55:49;;;;;;;0.70;0.50;;;12.10;99.90;;;;;;5094269;28;20028;-74
2022/12/23 05:58:15;;;;;;;0.52;0.40;;;12.10;99.90;;;;;;5094097;28;20469;-73
2022/12/23 06:00:41;;;;;;;0.88;0.60;;;12.10;99.90;;;;;;5093101;28;20016;-74
2022/12/23 06:03:07;;;;;;;1.10;0.50;;;12.10;99.90;;;;;;5093865;28;20038;-73
2022/12/23 06:05:32;;;;;;;1.05;0.95;;;12.10;99.90;;;;;;5094626;28;20055;-74
2022/12/23 06:07:58;;;;;;;2.78;0.60;;;12.10;99.90;;;;;;5093703;28;20020;-74
2022/12/23 06:10:23;;;;;;;2.13;0.90;;;12.10;99.90;;;;;;5093333;28;20028;-78
2022/12/23 06:12:49;;;;;;;0.88;0.57;;;12.10;99.90;;;;;;5094814;28;20032;-73
2022/12/23 06:15:15;;;;;;;0.70;0.57;;;12.10;99.90;;;;;;5093616;28;20469;-74
2022/12/23 06:17:40;;;;;;;0.80;0.68;;;12.10;99.90;;;;;;5092851;28;20209;-74
2022/12/23 06:20:07;;;;;;;2.20;0.55;;;12.10;99.90;;;;;;5093420;28;20031;-73
2022/12/23 06:22:32;;;;;;;0.73;0.52;;;12.10;99.90;;;;;;5094531;28;20365;-74
2022/12/23 06:24:58;;;;;;;1.38;0.75;;;12.10;99.90;;;;;;5093342;28;20506;-74
2022/12/23 06:27:23;;;;;;;0.98;0.68;;;12.10;99.90;;;;;;5094496;28;20053;-76
2022/12/23 06:29:49;;;;;;;1.98;0.52;;;12.10;99.90;;;;;;5093047;28;20119;-74
2022/12/23 06:32:14;;;;;;;0.35;0.30;;;12.10;99.90;;;;;;5094727;28;20126;-74
2022/12/23 06:34:40;;;;;;;0.90;0.40;;;12.10;99.90;;;;;;5093945;28;20901;-74
2022/12/23 06:37:06;;;;;;;3.13;0.55;;;12.10;99.90;;;;;;5093260;28;20032;-74
2022/12/23 06:39:31;;;;;;;0.65;0.60;;;12.10;99.90;;;;;;5092469;28;20020;-74
2022/12/23 06:41:57;;;;;;;0.80;0.50;;;12.10;99.90;;;;;;5092722;28;20035;-74
2022/12/23 06:44:22;;;;;;;0.45;0.40;;;12.20;99.90;;;;;;5092626;28;20031;-78
2022/12/23 06:46:48;;;;;;;1.05;0.60;;;12.10;99.90;;;;;;5093797;28;20077;-74
2022/12/23 06:49:14;;;;;;;2.47;0.50;;;12.10;99.90;;;;;;5093106;28;20031;-74
2022/12/23 06:51:40;;;;;;;0.50;0.50;;;12.10;99.90;;;;;;5092216;28;20035;-74
2022/12/23 06:54:06;;;;;;;3.13;0.70;;;12.20;99.90;;;;;;5093130;28;20024;-74
2022/12/23 06:56:34;;;;;;;1.70;0.60;;;12.10;99.90;;;;;;5093547;28;20040;-74
2022/12/23 06:59:00;;;;;;;1.52;0.50;;;12.20;99.90;;;;;;5093964;28;20028;-74
2022/12/23 07:01:25;;;;;;;1.48;0.80;;;12.20;99.90;;;;;;5092085;28;20038;-78
2022/12/23 07:03:51;;;;;;;2.60;1.08;;;12.20;99.90;;;;;;5092371;28;20491;-74
2022/12/23 07:06:16;;;;;;;1.88;0.90;;;12.20;99.90;;;;;;5093747;28;20024;-74
2022/12/23 07:08:42;;;;;;;2.17;1.00;;;12.20;99.90;;;;;;5092044;28;20030;-74
2022/12/23 07:11:07;;;;;;;2.70;0.80;;;12.20;99.90;;;;;;5093547;28;20503;-74
2022/12/23 07:13:34;;;;;;;8.23;0.82;;;12.20;99.90;;;;;;5093368;28;20028;-74
2022/12/23 07:16:05;;;;;;;3.88;0.90;;;12.20;99.90;;;;;;5092431;28;20057;-74
2022/12/23 07:18:31;;;;;;;2.97;0.95;;;12.20;99.90;;;;;;5093232;28;20048;-74
2022/12/23 07:20:59;;;;;;;4.28;1.30;;;12.20;99.90;;;;;;5092425;28;20108;-74
2022/12/23 07:23:25;;;;;;;2.45;1.00;;;12.20;99.90;;;;;;5092293;28;20054;-76
2022/12/23 07:25:51;;;;;;;3.28;1.17;;;12.20;99.90;;;;;;5093609;28;20024;-74
2022/12/23 07:28:16;;;;;;;2.78;1.45;;;12.30;99.90;;;;;;5093519;28;20428;-74
2022/12/23 07:30:42;;;;;;;1.98;1.45;;;12.30;99.90;;;;;;5091068;28;20024;-74
2022/12/23 07:33:07;;;;;;;3.22;0.63;;;12.20;99.90;;;;;;5092002;28;20046;-74
2022/12/23 07:35:33;;;;;;;1.65;0.60;;;12.20;99.90;;;;;;5091543;28;20051;-74
2022/12/23 07:37:59;;;;;;;0.50;0.50;;;12.20;99.90;;;;;;5093424;28;20024;-74
2022/12/23 07:40:25;;;;;;;1.38;0.82;;;12.20;99.90;;;;;;5093029;28;20490;-74
2022/12/23 07:42:56;;;;;;;1.92;0.70;;;12.20;99.90;;;;;;5091642;28;20020;-73
2022/12/23 07:45:27;;;;;;;4.03;0.68;;;12.20;99.90;;;;;;5091660;28;20039;-74
2022/12/23 07:47:53;;;;;;;1.70;0.70;;;12.10;99.90;;;;;;5091718;28;20032;-74
2022/12/23 07:50:19;;;;;;;5.10;2.50;;;12.10;99.90;;;;;;5091807;28;20097;-73
2022/12/23 07:52:45;;;;;;;3.33;2.83;;;12.10;99.90;;;;;;5092870;28;20020;-73
2022/12/23 07:55:11;;;;;;;3.15;1.40;;;12.00;99.90;;;;;;5093441;28;20111;-74
2022/12/23 07:57:37;;;;;;;2.47;1.00;;;12.10;99.90;;;;;;5091181;28;20067;-74
2022/12/23 08:00:21;;;;;;;1.42;0.80;;;12.10;99.90;;;;;;5091721;28;20028;-73
2022/12/23 08:02:47;;;;;;;2.15;0.70;;;12.10;99.90;;;;;;5092129;28;20405;-73
2022/12/23 08:05:14;;;;;;;4.03;0.80;;;12.10;99.90;;;;;;5091741;28;20059;-74
2022/12/23 08:07:39;;;;;;;1.88;0.70;;;12.10;99.90;;;;;;5090835;28;20085;-74
2022/12/23 08:10:06;;;;;;;2.17;0.80;;;12.10;99.90;;;;;;5093035;28;20020;-74
2022/12/23 08:12:32;;;;;;;1.60;0.80;;;12.10;99.90;;;;;;5091159;28;20024;-74
2022/12/23 08:14:57;;;;;;;1.60;0.70;;;12.10;99.90;;;;;;5091437;28;20050;-74
2022/12/23 08:17:28;;;;;;;1.08;0.60;;;12.10;99.90;;;;;;5092469;28;20051;-74
2022/12/23 08:19:54;;;;;;;1.20;0.70;;;12.10;99.90;;;;;;5092103;28;20023;-73
2022/12/23 08:22:19;;;;;;;0.70;0.70;;;12.10;99.90;;;;;;5091234;28;20386;-74
2022/12/23 08:24:45;;;;;;;1.38;0.50;;;12.10;99.90;;;;;;5090662;28;20035;-73
2022/12/23 08:27:11;;;;;;;2.47;0.60;;;12.20;99.90;;;;;;5092537;28;20067;-73
2022/12/23 08:29:38;;;;;;;1.63;0.80;;;12.20;99.90;;;;;;5090987;28;20016;-74
2022/12/23 08:32:04;;;;;;;2.03;0.93;;;12.20;99.90;;;;;;5092717;28;20024;-74
2022/12/23 08:34:31;;;;;;;0.88;0.70;;;12.10;99.90;;;;;;5092579;28;20024;-76
2022/12/23 08:36:56;;;;;;;4.00;0.70;;;12.20;99.90;;;;;;5092473;28;20032;-73
2022/12/23 08:39:22;;;;;;;1.40;0.70;;;12.10;99.90;;;;;;5092375;28;20051;-73
2022/12/23 08:41:47;;;;;;;1.98;0.70;;;12.10;99.90;;;;;;5092109;28;20109;-74
2022/12/23 08:44:13;;;;;;;2.47;1.10;;;12.10;99.90;;;;;;5095063;28;20138;-74
2022/12/23 08:46:40;;;;;;;0.47;0.45;;;12.10;99.90;;;;;;5096056;28;20516;-73
2022/12/23 08:49:07;;;;;;;1.60;0.65;;;12.10;99.90;;;;;;5094827;28;20024;-74
2022/12/23 08:51:34;;;;;;;1.65;0.80;;;12.10;99.90;;;;;;5094612;28;20036;-75
2022/12/23 08:54:00;;;;;;;1.30;1.15;;;12.10;99.90;;;;;;5094987;28;20028;-73
2022/12/23 08:56:28;;;;;;;1.67;0.70;;;12.10;99.90;;;;;;5094950;28;20427;-73
2022/12/23 08:58:55;;;;;;;1.45;0.70;;;12.10;99.90;;;;;;5094539;28;20093;-74
2022/12/23 09:01:23;;;;;;;1.85;0.70;;;12.10;99.90;;;;;;5095329;28;20024;-73
2022/12/23 09:03:49;;;;;;;1.13;0.70;;;12.20;99.90;;;;;;5094132;28;20035;-73
2022/12/23 09:06:24;;;;;;;1.13;0.80;;;12.20;99.90;;;;;;5095025;28;20028;-73
2022/12/23 09:08:51;;;;;;;2.85;1.02;;;12.20;99.90;;;;;;5094525;28;20798;-74
2022/12/23 09:11:20;;;;;;;1.70;0.90;;;12.20;99.90;;;;;;5095044;28;20028;-73
2022/12/23 09:13:46;;;;;;;3.92;1.50;;;12.20;99.90;;;;;;5094230;28;20024;-73
2022/12/23 09:16:12;;;;;;;3.38;1.23;;;12.30;99.90;;;;;;5094884;28;20036;-73
2022/12/23 09:18:38;;;;;;;1.85;1.15;;;12.30;99.90;;;;;;5105631;28;20498;-74
2022/12/23 09:21:13;;;;;;;2.95;1.00;;;12.30;99.90;;;;;;5115110;28;20065;-73
2022/12/23 09:23:39;;;;;;;2.22;0.52;;;12.30;99.90;;;;;;5115714;28;20062;-74
2022/12/23 09:26:07;;;;;;;0.90;0.47;;;12.30;99.90;;;;;;5115063;28;20030;-74
2022/12/23 09:28:33;;;;;;;1.33;0.50;;;12.30;99.90;;;;;;5114836;28;20110;-76
2022/12/23 09:31:09;;;;;;;1.48;0.60;;;12.40;99.90;;;;;;5114763;28;20023;-73
2022/12/23 09:33:35;;;;;;;0.52;0.40;;;12.40;99.90;;;;;;5114573;28;20028;-75
2022/12/23 09:36:02;;;;;;;1.25;0.90;;;12.40;99.90;;;;;;5114806;28;20031;-74
2022/12/23 09:38:27;;;;;;;1.13;0.70;;;12.40;99.90;;;;;;5114968;28;20495;-73
2022/12/23 09:41:01;;;;;;;2.45;0.88;;;12.40;99.90;;;;;;5114227;28;20472;-73
2022/12/23 09:43:47;;;;;;;7.85;2.47;;;12.30;99.90;;;;;;5114114;28;20034;-73
2022/12/23 09:46:17;;;;;;;3.92;1.02;;;12.40;99.90;;;;;;5115864;28;20035;-74
2022/12/23 09:48:57;;;;;;;3.63;0.90;;;12.30;99.90;;;;;;5115188;28;20024;-74
2022/12/23 09:51:23;;;;;;;1.23;1.13;;;12.30;99.90;;;;;;5114634;28;20076;-74
2022/12/23 09:53:53;;;;;;;2.28;1.08;;;12.30;99.90;;;;;;5114382;28;20102;-74
2022/12/23 09:56:30;;;;;;;2.53;1.40;;;12.30;99.90;;;;;;5115464;28;20047;-74
2022/12/23 09:59:15;;;;;;;4.60;2.28;;;12.30;99.90;;;;;;5113606;28;20445;-73
2022/12/23 10:02:20;;;;;;;2.25;1.45;;;12.30;99.90;;;;;;5095204;28;20035;-74
2022/12/23 10:05:01;;;;;;;2.38;1.40;;;12.30;99.90;;;;;;5084142;28;20043;-74
2022/12/23 10:07:43;;;;;;;1.33;1.00;;;12.30;99.90;;;;;;5114097;28;20473;-73
2022/12/23 10:10:45;;;;;;;1.55;0.85;;;12.30;99.90;;;;;;5114934;28;20693;-73
2022/12/23 10:13:30;;;;;;;0.70;0.70;;;12.30;99.90;;;;;;5072926;28;20036;-73
2022/12/23 10:16:03;;;;;;;2.58;1.15;;;12.30;99.90;;;;;;5114366;28;20031;-73
2022/12/23 10:18:52;;;;;;;1.70;0.50;;;12.30;99.90;;;;;;5113465;28;20134;-73
2022/12/23 10:21:30;;;;;;;0.85;0.63;;;12.30;99.90;;;;;;5113939;28;20027;-73
2022/12/23 10:23:55;;;;;;;1.25;0.60;;;12.40;99.90;;;;;;5113411;28;20222;-74
2022/12/23 10:26:28;;;;;;;0.90;0.70;;;12.40;99.90;;;;;;5114823;28;20524;-73
2022/12/23 10:29:15;;;;;;;1.15;0.90;;;12.40;99.90;;;;;;5113363;28;20026;-74
2022/12/23 10:32:01;;;;;;;1.63;0.70;;;12.40;99.90;;;;;;5112793;28;20422;-74
2022/12/23 10:34:30;;;;;;;0.70;0.70;;;12.50;99.90;;;;;;5113426;28;20028;-73
2022/12/23 10:37:08;;;;;;;1.00;0.60;;;12.50;99.90;;;;;;5112682;28;20038;-73
2022/12/23 10:39:43;;;;;;;1.95;0.70;;;12.60;99.90;;;;;;5113500;28;20111;-73
2022/12/23 10:42:25;;;;;;;1.30;0.85;;;12.60;99.90;;;;;;5112978;28;20065;-73
2022/12/23 10:45:06;;;;;;;1.02;0.60;;;12.60;99.90;;;;;;5112647;28;20061;-74
2022/12/23 10:47:43;;;;;;;0.65;0.43;;;12.60;99.90;;;;;;5114543;28;20042;-73
2022/12/23 10:50:30;;;;;;;1.50;0.60;;;12.60;99.90;;;;;;5113449;28;20412;-74
2022/12/23 10:53:00;;;;;;;1.90;0.50;;;12.60;99.90;;;;;;5112907;28;20028;-73
2022/12/23 10:55:30;;;;;;;1.17;0.73;;;12.60;99.90;;;;;;5114292;28;20108;-73
2022/12/23 10:58:02;;;;;;;1.05;0.57;;;12.60;99.90;;;;;;5114048;28;20027;-73
2022/12/23 11:00:28;;;;;;;3.13;0.77;;;12.70;99.90;;;;;;5114144;28;20023;-73
2022/12/23 11:03:06;;;;;;;1.15;0.50;;;12.70;99.90;;;;;;5112353;28;20114;-74
2022/12/23 11:05:33;;;;;;;1.27;0.60;;;12.70;99.90;;;;;;5112099;28;20016;-73
2022/12/23 11:07:59;;;;;;;1.73;0.60;;;12.70;99.90;;;;;;5112444;28;20024;-74
2022/12/23 11:10:31;;;;;;;1.63;0.70;;;12.70;99.90;;;;;;5114197;28;20020;-73
2022/12/23 11:12:57;;;;;;;0.90;0.70;;;12.70;99.90;;;;;;5113521;28;20069;-73
2022/12/23 11:15:31;;;;;;;0.98;0.70;;;12.80;99.90;;;;;;5113697;28;20035;-73
2022/12/23 11:18:11;;;;;;;2.88;0.60;;;12.80;99.90;;;;;;5111970;28;20079;-74
2022/12/23 11:20:39;;;;;;;0.77;0.60;;;12.80;99.90;;;;;;5112875;28;20411;-74
2022/12/23 11:23:21;;;;;;;0.88;0.60;;;12.80;99.90;;;;;;5112170;28;20064;-73
2022/12/23 11:25:47;;;;;;;1.52;0.70;;;12.80;99.90;;;;;;5112139;28;20076;-74
2022/12/23 11:28:17;;;;;;;0.77;0.60;;;12.80;99.90;;;;;;5113954;28;20107;-74
2022/12/23 11:30:56;;;;;;;1.45;0.60;;;12.80;99.90;;;;;;5112275;28;20118;-77
2022/12/23 11:33:35;;;;;;;0.70;0.65;;;12.80;99.90;;;;;;5112715;28;20023;-74
2022/12/23 11:36:13;;;;;;;0.77;0.60;;;12.80;99.90;;;;;;5113166;28;20382;-74
2022/12/23 11:39:08;;;;;;;2.63;0.70;;;12.80;99.90;;;;;;5112486;28;20032;-74
2022/12/23 11:41:44;;;;;;;0.88;0.68;;;12.80;99.90;;;;;;5114124;28;20030;-74
2022/12/23 11:44:38;;;;;;;1.00;0.68;;;12.80;99.90;;;;;;5112356;28;20480;-74
2022/12/23 11:47:22;;;;;;;1.90;0.50;;;12.80;99.90;;;;;;5109648;28;20318;-78
2022/12/23 11:50:00;;;;;;;3.00;1.00;;;12.90;99.90;;;;;;5100638;28;20098;-74
2022/12/23 11:52:30;;;;;;;2.95;0.70;;;12.80;99.90;;;;;;5109315;28;20024;-74
2022/12/23 11:55:00;;;;;;;1.30;0.70;;;12.90;99.90;;;;;;5106507;28;20027;-74
2022/12/23 11:57:45;;;;;;;3.50;0.70;;;12.90;99.90;;;;;;5098551;28;20028;-74
2022/12/23 12:00:23;;;;;;;0.55;0.50;;;12.80;99.90;;;;;;5101148;28;20110;-74
2022/12/23 12:02:55;;;;;;;0.68;0.40;;;12.90;99.90;;;;;;5092152;28;20121;-74
2022/12/23 12:05:32;;;;;;;1.15;0.60;;;12.90;99.90;;;;;;5099499;28;20119;-74
2022/12/23 12:08:04;;;;;;;0.60;0.50;;;12.90;99.90;;;;;;5098177;28;20024;-74
2022/12/23 12:10:34;;;;;;;0.80;0.40;;;12.80;99.90;;;;;;5092382;28;20035;-74
2022/12/23 12:13:26;;;;;;;3.35;0.60;;;12.90;99.90;;;;;;5105619;28;20020;-74
2022/12/23 12:16:06;;;;;;;2.03;0.35;;;12.90;99.90;;;;;;5072258;28;20134;-74
2022/12/23 12:18:33;;;;;;;1.85;0.50;;;12.90;99.90;;;;;;5111547;28;20396;-74
2022/12/23 12:21:04;;;;;;;1.20;0.40;;;12.90;99.90;;;;;;5110800;28;20369;-74
2022/12/23 12:23:47;;;;;;;1.20;0.60;;;12.90;99.90;;;;;;5111674;28;20036;-75
2022/12/23 12:26:27;;;;;;;2.83;0.30;;;12.90;99.90;;;;;;5096323;28;20039;-74
2022/12/23 12:29:16;;;;;;;1.50;0.60;;;12.90;99.90;;;;;;5096125;28;20511;-74
2022/12/23 12:31:46;;;;;;;1.38;0.90;;;12.90;99.90;;;;;;5107309;28;20028;-78
2022/12/23 12:34:18;;;;;;;0.95;0.80;;;12.90;99.90;;;;;;5092593;28;20028;-75
2022/12/23 12:37:25;;;;;;;0.93;0.73;;;12.90;99.90;;;;;;5109296;28;20036;-75
2022/12/23 12:39:53;;;;;;;0.85;0.55;;;13.00;99.90;;;;;;5091662;28;20035;-75
2022/12/23 12:42:25;;;;;;;1.08;0.75;;;13.00;99.90;;;;;;5111691;28;20028;-75
2022/12/23 12:45:03;;;;;;;1.75;0.50;;;13.00;99.90;;;;;;5108472;28;20029;-75
2022/12/23 12:47:40;;;;;;;1.13;0.90;;;13.00;99.90;;;;;;5089242;28;20119;-74
2022/12/23 12:50:20;;;;;;;0.80;0.80;;;13.00;99.90;;;;;;5090610;28;20111;-74
2022/12/23 12:52:46;;;;;;;1.33;0.60;;;13.00;99.90;;;;;;5094687;28;20384;-79
2022/12/23 12:55:26;;;;;;;1.17;0.77;;;13.00;99.90;;;;;;5112496;28;20050;-75
2022/12/23 12:57:52;;;;;;;0.68;0.63;;;13.00;99.90;;;;;;5099541;28;20056;-75
2022/12/23 13:00:21;;;;;;;0.93;0.80;;;13.00;99.90;;;;;;5090580;28;20063;-75
2022/12/23 13:03:32;;;;;;;2.67;0.80;;;13.00;99.90;;;;;;5106624;28;20047;-75
2022/12/23 13:06:34;;;;;;;2.03;1.27;;;13.00;99.90;;;;;;5012580;28;20035;-75
2022/12/23 13:09:28;;;;;;;1.00;0.60;;;13.00;99.90;;;;;;5095435;28;20023;-75
2022/12/23 13:12:03;;;;;;;1.27;0.80;;;13.00;99.90;;;;;;5102386;28;20030;-75
2022/12/23 13:15:04;;;;;;;1.40;0.75;;;13.00;99.90;;;;;;5109906;28;20123;-75
2022/12/23 13:17:41;;;;;;;1.85;0.68;;;13.00;99.90;;;;;;5098802;28;20066;-75
2022/12/23 13:20:21;;;;;;;0.50;0.50;;;13.10;99.90;;;;;;5110272;28;20096;-74
2022/12/23 13:22:51;;;;;;;1.80;0.50;;;13.10;99.90;;;;;;5090399;28;20385;-77
2022/12/23 13:25:28;;;;;;;2.15;0.70;;;13.10;99.90;;;;;;5099744;28;20020;-75
2022/12/23 13:28:00;;;;;;;1.80;0.90;;;13.10;99.90;;;;;;5097737;28;20058;-75
2022/12/23 13:30:35;;;;;;;0.90;0.80;;;13.10;99.90;;;;;;5111685;28;20533;-75
2022/12/23 13:33:25;;;;;;;2.08;0.77;;;13.20;99.90;;;;;;5109592;28;20024;-74
2022/12/23 13:36:23;;;;;;;3.03;0.80;;;13.20;99.90;;;;;;5105934;28;20029;-75